createdAt,value
2023-01-08T00:00:26.367Z,11.25
2023-01-08T00:01:28.014Z,9.98
2023-01-08T00:02:29.798Z,10.25
2023-01-08T00:03:31.634Z,12.25
2023-01-08T00:04:33.333Z,11.82
2023-01-08T00:05:34.981Z,12.52
2023-01-08T00:06:36.753Z,10.48
2023-01-08T00:07:38.601Z,11.65
2023-01-08T00:08:40.183Z,10.00
2023-01-08T00:09:41.840Z,10.45
2023-01-08T00:10:43.465Z,10.70
2023-01-08T00:11:45.031Z,10.63
2023-01-08T00:12:46.629Z,9.55
2023-01-08T00:13:48.196Z,9.27
2023-01-08T00:14:49.877Z,17.70
2023-01-08T00:15:51.437Z,13.90
2023-01-08T00:16:53.179Z,8.73
2023-01-08T00:17:54.869Z,10.18
2023-01-08T00:18:56.524Z,9.05
2023-01-08T00:19:58.128Z,8.68
2023-01-08T00:21:00.260Z,7.70
2023-01-08T00:22:01.877Z,8.20
2023-01-08T00:23:03.514Z,7.75
2023-01-08T00:24:05.388Z,10.05
2023-01-08T00:25:07.551Z,9.32
2023-01-08T00:26:09.930Z,11.50
2023-01-08T00:27:11.830Z,9.52
2023-01-08T00:28:15.039Z,7.85
2023-01-08T00:29:16.666Z,9.75
2023-01-08T00:30:18.270Z,9.02
2023-01-08T00:31:19.950Z,12.70
2023-01-08T00:32:21.617Z,9.02
2023-01-08T00:33:23.241Z,8.73
2023-01-08T00:34:24.859Z,9.40
2023-01-08T00:35:26.479Z,8.60
2023-01-08T00:36:28.116Z,9.20
2023-01-08T00:37:29.700Z,9.15
2023-01-08T00:38:31.644Z,9.65
2023-01-08T00:39:33.296Z,8.77
2023-01-08T00:40:35.543Z,9.50
2023-01-08T00:41:37.172Z,7.90
2023-01-08T00:42:38.756Z,9.65
2023-01-08T00:43:40.683Z,8.77
2023-01-08T00:44:42.291Z,9.05
2023-01-08T00:45:43.856Z,6.68
2023-01-08T00:46:45.589Z,9.32
2023-01-08T00:47:47.194Z,10.40
2023-01-08T00:48:48.791Z,10.10
2023-01-08T00:49:50.436Z,10.68
2023-01-08T00:50:53.069Z,15.05
2023-01-08T00:52:56.286Z,11.60
2023-01-08T00:53:57.896Z,8.57
2023-01-08T00:54:59.490Z,9.02
2023-01-08T00:56:06.807Z,9.43
2023-01-08T00:57:08.496Z,9.30
2023-01-08T00:58:11.070Z,11.80
2023-01-08T01:00:15.449Z,7.72
2023-01-08T01:01:17.243Z,7.28
2023-01-08T01:02:18.950Z,11.00
2023-01-08T01:03:20.604Z,8.18
2023-01-08T01:04:22.233Z,8.88
2023-01-08T01:05:23.947Z,6.47
2023-01-08T01:06:25.584Z,7.35
2023-01-08T01:07:27.185Z,8.80
2023-01-08T01:08:29.041Z,7.93
2023-01-08T01:09:30.675Z,6.93
2023-01-08T01:10:32.229Z,7.60
2023-01-08T01:11:34.096Z,7.45
2023-01-08T01:12:38.238Z,12.07
2023-01-08T01:13:39.866Z,7.15
2023-01-08T01:14:41.550Z,8.98
2023-01-08T01:15:43.182Z,13.45
2023-01-08T01:16:44.854Z,13.20
2023-01-08T01:17:46.676Z,8.20
2023-01-08T01:18:48.576Z,7.43
2023-01-08T01:19:50.102Z,8.32
2023-01-08T01:20:51.711Z,7.53
2023-01-08T01:21:53.324Z,8.32
2023-01-08T01:22:54.944Z,6.93
2023-01-08T01:23:58.911Z,11.48
2023-01-08T01:25:00.602Z,10.48
2023-01-08T01:26:02.203Z,10.20
2023-01-08T01:27:03.839Z,7.30
2023-01-08T01:28:05.445Z,7.88
2023-01-08T01:29:07.075Z,7.88
2023-01-08T01:30:09.400Z,6.68
2023-01-08T01:31:13.505Z,7.85
2023-01-08T01:32:15.642Z,8.38
2023-01-08T01:33:17.276Z,6.63
2023-01-08T01:34:18.865Z,7.43
2023-01-08T01:35:20.471Z,9.00
2023-01-08T01:36:23.720Z,7.97
2023-01-08T01:37:25.375Z,7.97
2023-01-08T01:38:27.021Z,7.22
2023-01-08T01:39:28.719Z,8.27
2023-01-08T01:40:30.390Z,6.95
2023-01-08T01:41:36.804Z,8.95
2023-01-08T01:42:41.097Z,7.85
2023-01-08T01:43:43.638Z,10.77
2023-01-08T01:44:46.109Z,8.32
2023-01-08T01:45:47.797Z,8.63
2023-01-08T01:46:49.821Z,6.85
2023-01-08T01:47:58.118Z,7.20
2023-01-08T01:49:10.444Z,6.90
2023-01-08T01:50:18.990Z,8.27
2023-01-08T01:51:20.690Z,6.22
2023-01-08T01:52:22.707Z,6.50
2023-01-08T01:53:25.209Z,7.75
2023-01-08T01:54:26.841Z,6.85
2023-01-08T01:55:29.081Z,7.60
2023-01-08T01:56:32.504Z,7.55
2023-01-08T01:57:34.403Z,6.35
2023-01-08T01:58:36.208Z,7.15
2023-01-08T01:59:37.806Z,8.00
2023-01-08T02:00:39.569Z,7.28
2023-01-08T02:01:42.261Z,8.02
2023-01-08T02:02:44.311Z,7.18
2023-01-08T02:03:45.926Z,7.20
2023-01-08T02:04:47.523Z,8.15
2023-01-08T02:05:56.357Z,7.72
2023-01-08T02:07:02.723Z,7.07
2023-01-08T02:08:11.551Z,7.22
2023-01-08T02:09:35.729Z,8.00
2023-01-08T02:10:49.163Z,10.93
2023-01-08T02:12:17.156Z,10.82
2023-01-08T02:13:26.664Z,6.55
2023-01-08T02:14:39.351Z,8.43
2023-01-08T02:16:05.997Z,10.85
2023-01-08T02:17:10.956Z,7.43
2023-01-08T02:18:18.432Z,9.77
2023-01-08T02:19:31.589Z,9.57
2023-01-08T02:20:40.356Z,6.18
2023-01-08T02:23:20.743Z,7.20
2023-01-08T02:24:59.685Z,7.40
2023-01-08T02:26:22.325Z,9.02
2023-01-08T02:27:25.447Z,7.65
2023-01-08T02:28:27.717Z,5.88
2023-01-08T02:29:30.291Z,11.75
2023-01-08T02:30:31.960Z,6.78
2023-01-08T02:31:35.122Z,6.22
2023-01-08T02:32:38.581Z,6.55
2023-01-08T02:33:40.208Z,6.68
2023-01-08T02:34:41.823Z,6.50
2023-01-08T02:35:52.408Z,5.90
2023-01-08T02:36:55.354Z,9.30
2023-01-08T02:37:56.958Z,9.07
2023-01-08T02:39:27.988Z,8.73
2023-01-08T02:40:34.044Z,6.95
2023-01-08T02:42:05.001Z,8.30
2023-01-08T02:43:16.899Z,6.03
2023-01-08T02:44:23.288Z,5.72
2023-01-08T02:45:36.569Z,6.28
2023-01-08T02:46:38.713Z,5.68
2023-01-08T02:47:46.264Z,6.07
2023-01-08T02:48:49.823Z,7.78
2023-01-08T02:49:56.832Z,5.70
2023-01-08T02:51:08.526Z,6.13
2023-01-08T02:52:11.080Z,6.20
2023-01-08T02:53:30.768Z,5.65
2023-01-08T02:54:34.575Z,5.20
2023-01-08T02:55:37.738Z,4.93
2023-01-08T02:56:43.882Z,5.82
2023-01-08T02:57:45.920Z,7.93
2023-01-08T02:58:48.483Z,7.80
2023-01-08T02:59:50.786Z,7.55
2023-01-08T03:00:53.536Z,10.73
2023-01-08T03:01:56.034Z,7.80
2023-01-08T03:03:06.320Z,6.00
2023-01-08T03:04:14.879Z,6.00
2023-01-08T03:05:23.086Z,5.85
2023-01-08T03:06:24.907Z,6.93
2023-01-08T03:07:26.553Z,6.70
2023-01-08T03:08:28.585Z,6.57
2023-01-08T03:09:30.908Z,6.38
2023-01-08T03:10:32.630Z,9.18
2023-01-08T03:11:41.178Z,6.55
2023-01-08T03:12:53.911Z,9.32
2023-01-08T03:14:10.230Z,6.35
2023-01-08T03:15:22.873Z,5.10
2023-01-08T03:16:31.695Z,9.63
2023-01-08T03:17:36.354Z,6.38
2023-01-08T03:18:43.421Z,6.13
2023-01-08T03:19:50.149Z,5.25
2023-01-08T03:20:52.142Z,7.68
2023-01-08T03:21:54.043Z,6.40
2023-01-08T03:22:57.670Z,6.10
2023-01-08T03:24:00.086Z,5.82
2023-01-08T03:25:02.338Z,7.35
2023-01-08T03:26:05.253Z,6.28
2023-01-08T03:27:09.516Z,5.90
2023-01-08T03:28:15.770Z,6.88
2023-01-08T03:29:19.793Z,5.80
2023-01-08T03:30:22.136Z,5.68
2023-01-08T03:31:26.409Z,6.22
2023-01-08T03:32:29.652Z,6.18
2023-01-08T03:33:31.969Z,6.15
2023-01-08T03:34:36.597Z,6.63
2023-01-08T03:35:40.436Z,6.53
2023-01-08T03:36:45.208Z,6.38
2023-01-08T03:37:51.178Z,6.38
2023-01-08T03:39:00.491Z,7.03
2023-01-08T03:40:14.449Z,6.85
2023-01-08T03:41:19.395Z,7.07
2023-01-08T03:42:21.597Z,7.15
2023-01-08T03:43:23.441Z,7.22
2023-01-08T03:44:24.976Z,7.03
2023-01-08T03:45:27.946Z,5.95
2023-01-08T03:46:34.087Z,7.82
2023-01-08T03:47:36.534Z,6.78
2023-01-08T03:48:38.568Z,6.53
2023-01-08T03:49:41.212Z,5.70
2023-01-08T03:51:46.670Z,6.60
2023-01-08T03:52:48.362Z,7.13
2023-01-08T03:53:52.611Z,6.97
2023-01-08T03:54:54.219Z,7.03
2023-01-08T03:55:56.817Z,6.50
2023-01-08T03:56:58.417Z,6.00
2023-01-08T03:58:00.054Z,6.53
2023-01-08T03:59:01.618Z,6.70
2023-01-08T04:00:04.513Z,6.30
2023-01-08T04:01:06.722Z,8.13
2023-01-08T04:02:08.850Z,6.78
2023-01-08T04:03:10.661Z,5.95
2023-01-08T04:04:12.379Z,5.68
2023-01-08T04:05:13.993Z,5.72
2023-01-08T04:06:15.659Z,6.57
2023-01-08T04:07:17.284Z,7.00
2023-01-08T04:08:18.914Z,6.20
2023-01-08T04:09:20.566Z,7.38
2023-01-08T04:10:22.781Z,7.95
2023-01-08T04:11:24.375Z,7.13
2023-01-08T04:12:25.956Z,7.03
2023-01-08T04:13:27.589Z,5.50
2023-01-08T04:14:29.204Z,6.10
2023-01-08T04:15:30.873Z,6.10
2023-01-08T04:16:34.696Z,6.32
2023-01-08T04:17:36.321Z,6.50
2023-01-08T04:18:37.924Z,6.72
2023-01-08T04:19:39.532Z,6.07
2023-01-08T04:20:45.440Z,7.63
2023-01-08T04:21:47.033Z,6.63
2023-01-08T04:22:48.756Z,5.97
2023-01-08T04:23:50.379Z,7.07
2023-01-08T04:24:52.004Z,5.97
2023-01-08T04:25:53.668Z,4.90
2023-01-08T04:26:55.267Z,6.35
2023-01-08T04:27:56.905Z,6.15
2023-01-08T04:28:58.492Z,5.45
2023-01-08T04:30:00.088Z,5.32
2023-01-08T04:31:10.796Z,5.47
2023-01-08T04:32:12.505Z,5.32
2023-01-08T04:33:14.416Z,4.68
2023-01-08T04:34:16.032Z,7.45
2023-01-08T04:35:17.683Z,9.73
2023-01-08T04:36:19.329Z,7.95
2023-01-08T04:37:21.084Z,6.00
2023-01-08T04:38:22.709Z,7.38
2023-01-08T04:39:24.328Z,5.68
2023-01-08T04:40:26.008Z,6.05
2023-01-08T04:41:27.593Z,5.25
2023-01-08T04:42:29.190Z,6.45
2023-01-08T04:43:31.698Z,5.78
2023-01-08T04:44:33.347Z,5.65
2023-01-08T04:45:34.968Z,7.70
2023-01-08T04:46:36.659Z,6.68
2023-01-08T04:47:38.377Z,5.55
2023-01-08T04:48:40.289Z,6.30
2023-01-08T04:49:41.917Z,7.57
2023-01-08T04:50:43.503Z,5.35
2023-01-08T04:51:45.104Z,6.00
2023-01-08T04:52:46.712Z,5.13
2023-01-08T04:53:48.249Z,6.40
2023-01-08T04:54:49.824Z,5.82
2023-01-08T04:55:51.429Z,7.15
2023-01-08T04:56:53.074Z,8.35
2023-01-08T04:57:54.681Z,7.53
2023-01-08T04:58:56.238Z,6.93
2023-01-08T04:59:57.786Z,7.07
2023-01-08T05:00:59.448Z,6.43
2023-01-08T05:02:01.214Z,6.55
2023-01-08T05:03:02.920Z,7.00
2023-01-08T05:04:05.432Z,5.75
2023-01-08T05:05:07.455Z,5.57
2023-01-08T05:06:09.099Z,6.03
2023-01-08T05:07:10.686Z,5.75
2023-01-08T05:08:12.295Z,4.88
2023-01-08T05:09:14.004Z,5.05
2023-01-08T05:10:18.516Z,7.50
2023-01-08T05:11:20.350Z,10.32
2023-01-08T05:12:22.030Z,7.03
2023-01-08T05:13:23.600Z,5.70
2023-01-08T05:14:25.523Z,5.25
2023-01-08T05:15:27.659Z,5.88
2023-01-08T05:16:29.289Z,5.50
2023-01-08T05:17:30.891Z,6.43
2023-01-08T05:18:32.716Z,5.28
2023-01-08T05:19:34.282Z,6.00
2023-01-08T05:20:35.908Z,6.40
2023-01-08T05:21:37.564Z,4.75
2023-01-08T05:22:39.147Z,6.25
2023-01-08T05:23:40.711Z,5.82
2023-01-08T05:24:42.255Z,6.10
2023-01-08T05:25:43.895Z,6.38
2023-01-08T05:26:45.444Z,7.88
2023-01-08T05:27:47.518Z,8.00
2023-01-08T05:28:49.178Z,5.65
2023-01-08T05:29:51.754Z,7.20
2023-01-08T05:30:53.854Z,7.22
2023-01-08T05:31:55.544Z,8.02
2023-01-08T05:32:57.125Z,6.85
2023-01-08T05:33:59.315Z,6.07
2023-01-08T05:35:00.871Z,5.30
2023-01-08T05:36:05.321Z,4.60
2023-01-08T05:37:06.914Z,6.05
2023-01-08T05:38:08.489Z,4.82
2023-01-08T05:39:10.101Z,5.55
2023-01-08T05:40:12.129Z,5.70
2023-01-08T05:41:13.752Z,6.13
2023-01-08T05:42:15.356Z,6.10
2023-01-08T05:43:17.046Z,6.43
2023-01-08T05:44:18.681Z,6.18
2023-01-08T05:45:20.413Z,5.93
2023-01-08T05:46:22.244Z,5.82
2023-01-08T05:47:23.985Z,7.65
2023-01-08T05:48:26.758Z,6.45
2023-01-08T05:49:28.296Z,6.63
2023-01-08T05:50:29.915Z,5.57
2023-01-08T05:51:31.526Z,7.22
2023-01-08T05:52:33.157Z,7.80
2023-01-08T05:53:34.848Z,7.10
2023-01-08T05:54:36.426Z,7.10
2023-01-08T05:55:37.990Z,7.28
2023-01-08T05:56:40.389Z,7.35
2023-01-08T05:57:42.004Z,8.18
2023-01-08T05:58:43.586Z,7.38
2023-01-08T05:59:45.362Z,8.68
2023-01-08T06:00:47.046Z,7.05
2023-01-08T06:01:48.671Z,7.32
2023-01-08T06:02:50.405Z,6.15
2023-01-08T06:03:55.547Z,6.53
2023-01-08T06:04:57.188Z,8.68
2023-01-08T06:06:02.646Z,5.88
2023-01-08T06:07:04.217Z,7.25
2023-01-08T06:08:07.749Z,6.53
2023-01-08T06:09:10.202Z,7.13
2023-01-08T06:10:11.851Z,7.22
2023-01-08T06:11:13.847Z,7.32
2023-01-08T06:12:15.529Z,6.90
2023-01-08T06:13:17.129Z,7.07
2023-01-08T06:14:18.983Z,6.95
2023-01-08T06:15:20.692Z,5.15
2023-01-08T06:16:22.454Z,5.63
2023-01-08T06:17:24.142Z,6.93
2023-01-08T06:18:26.334Z,5.20
2023-01-08T06:19:27.863Z,4.65
2023-01-08T06:20:29.514Z,5.28
2023-01-08T06:21:31.099Z,5.88
2023-01-08T06:22:33.692Z,5.00
2023-01-08T06:24:36.887Z,4.78
2023-01-08T06:25:38.563Z,6.07
2023-01-08T06:26:40.138Z,5.35
2023-01-08T06:27:41.776Z,5.40
2023-01-08T06:28:43.335Z,4.68
2023-01-08T06:29:44.950Z,4.30
2023-01-08T06:30:46.567Z,4.72
2023-01-08T06:31:48.174Z,5.18
2023-01-08T06:32:49.783Z,5.55
2023-01-08T06:33:51.427Z,3.88
2023-01-08T06:34:53.109Z,4.68
2023-01-08T06:35:54.879Z,4.00
2023-01-08T06:36:56.489Z,5.18
2023-01-08T06:37:58.533Z,5.43
2023-01-08T06:39:00.119Z,4.90
2023-01-08T06:40:01.781Z,5.50
2023-01-08T06:41:08.595Z,5.28
2023-01-08T06:42:10.262Z,5.35
2023-01-08T06:43:12.135Z,5.55
2023-01-08T06:44:13.796Z,5.22
2023-01-08T06:45:15.585Z,5.25
2023-01-08T06:46:17.242Z,5.88
2023-01-08T06:47:18.940Z,4.57
2023-01-08T06:48:20.609Z,5.93
2023-01-08T06:49:22.736Z,5.55
2023-01-08T06:50:24.297Z,4.65
2023-01-08T06:51:25.843Z,5.43
2023-01-08T06:52:27.532Z,4.85
2023-01-08T06:53:29.643Z,4.43
2023-01-08T06:54:31.203Z,4.57
2023-01-08T06:55:32.856Z,5.65
2023-01-08T06:56:48.834Z,4.25
2023-01-08T06:57:55.298Z,3.92
2023-01-08T06:58:56.973Z,3.50
2023-01-08T06:59:58.587Z,4.13
2023-01-08T07:01:00.215Z,4.78
2023-01-08T07:02:01.974Z,4.53
2023-01-08T07:03:04.181Z,4.40
2023-01-08T07:04:05.961Z,5.88
2023-01-08T07:05:07.921Z,4.15
2023-01-08T07:06:16.974Z,3.78
2023-01-08T07:07:18.546Z,4.55
2023-01-08T07:08:20.282Z,4.75
2023-01-08T07:09:21.898Z,3.63
2023-01-08T07:10:23.649Z,4.32
2023-01-08T07:11:25.250Z,3.28
2023-01-08T07:12:26.938Z,4.53
2023-01-08T07:13:29.162Z,4.07
2023-01-08T07:14:30.769Z,3.88
2023-01-08T07:15:32.330Z,4.85
2023-01-08T07:16:33.967Z,4.40
2023-01-08T07:17:35.794Z,5.00
2023-01-08T07:18:37.378Z,3.45
2023-01-08T07:19:39.012Z,3.50
2023-01-08T07:20:40.673Z,4.63
2023-01-08T07:21:42.269Z,4.15
2023-01-08T07:22:43.957Z,5.43
2023-01-08T07:23:48.611Z,3.78
2023-01-08T07:24:50.221Z,3.80
2023-01-08T07:25:51.805Z,3.83
2023-01-08T07:26:53.510Z,4.18
2023-01-08T07:27:55.161Z,3.80
2023-01-08T07:28:56.737Z,3.25
2023-01-08T07:29:58.635Z,4.65
2023-01-08T07:31:04.953Z,3.50
2023-01-08T07:32:06.555Z,3.40
2023-01-08T07:33:08.164Z,3.80
2023-01-08T07:34:09.763Z,3.40
2023-01-08T07:35:11.355Z,5.45
2023-01-08T07:36:13.113Z,4.22
2023-01-08T07:37:14.757Z,3.58
2023-01-08T07:38:16.360Z,3.63
2023-01-08T07:39:18.018Z,3.75
2023-01-08T07:40:19.582Z,3.05
2023-01-08T07:41:21.183Z,3.47
2023-01-08T07:42:22.845Z,5.88
2023-01-08T07:43:25.247Z,3.78
2023-01-08T07:44:26.856Z,3.97
2023-01-08T07:45:29.272Z,3.10
2023-01-08T07:46:30.987Z,3.83
2023-01-08T07:47:32.652Z,4.47
2023-01-08T07:48:34.320Z,3.35
2023-01-08T07:49:35.950Z,4.07
2023-01-08T07:50:39.858Z,4.30
2023-01-08T07:51:42.874Z,4.38
2023-01-08T07:52:44.458Z,4.35
2023-01-08T07:53:46.034Z,4.28
2023-01-08T07:54:47.658Z,3.47
2023-01-08T07:55:49.257Z,4.43
2023-01-08T07:56:50.848Z,4.18
2023-01-08T07:57:52.450Z,3.83
2023-01-08T07:58:54.099Z,4.20
2023-01-08T07:59:55.721Z,4.30
2023-01-08T08:00:59.244Z,3.70
2023-01-08T08:02:01.175Z,3.90
2023-01-08T08:03:07.013Z,3.78
2023-01-08T08:04:08.663Z,4.78
2023-01-08T08:05:10.321Z,3.83
2023-01-08T08:06:11.908Z,4.85
2023-01-08T08:07:13.616Z,4.70
2023-01-08T08:08:15.248Z,5.55
2023-01-08T08:09:17.031Z,5.75
2023-01-08T08:10:18.599Z,4.97
2023-01-08T08:11:20.203Z,4.90
2023-01-08T08:12:21.791Z,6.72
2023-01-08T08:13:23.512Z,5.20
2023-01-08T08:14:25.096Z,4.97
2023-01-08T08:15:26.699Z,6.38
2023-01-08T08:16:28.415Z,6.40
2023-01-08T08:17:30.075Z,10.05
2023-01-08T08:18:31.803Z,7.97
2023-01-08T08:19:33.491Z,7.35
2023-01-08T08:20:35.392Z,6.75
2023-01-08T08:21:37.056Z,6.05
2023-01-08T08:22:38.676Z,5.80
2023-01-08T08:23:40.301Z,8.77
2023-01-08T08:24:41.990Z,9.57
2023-01-08T08:25:43.725Z,8.10
2023-01-08T08:26:45.322Z,9.73
2023-01-08T08:27:46.956Z,6.40
2023-01-08T08:28:48.684Z,5.80
2023-01-08T08:29:50.250Z,5.65
2023-01-08T08:30:51.992Z,5.88
2023-01-08T08:31:53.641Z,5.95
2023-01-08T08:32:56.029Z,5.75
2023-01-08T08:33:57.646Z,6.50
2023-01-08T08:34:59.731Z,6.43
2023-01-08T08:36:01.412Z,11.07
2023-01-08T08:37:03.066Z,16.35
2023-01-08T08:38:05.134Z,15.98
2023-01-08T08:39:06.718Z,14.20
2023-01-08T08:40:08.788Z,15.02
2023-01-08T08:41:10.404Z,12.68
2023-01-08T08:42:11.991Z,8.73
2023-01-08T08:43:13.685Z,9.35
2023-01-08T08:44:15.306Z,9.13
2023-01-08T08:45:19.621Z,11.07
2023-01-08T08:46:21.342Z,14.35
2023-01-08T08:47:22.992Z,13.43
2023-01-08T08:48:24.871Z,11.65
2023-01-08T08:49:26.428Z,11.70
2023-01-08T08:50:28.024Z,14.07
2023-01-08T08:51:29.692Z,11.98
2023-01-08T08:52:32.131Z,11.07
2023-01-08T08:53:33.740Z,10.32
2023-01-08T08:54:35.274Z,10.85
2023-01-08T08:55:36.867Z,11.63
2023-01-08T08:56:38.448Z,11.27
2023-01-08T08:57:40.058Z,14.90
2023-01-08T08:58:41.930Z,12.43
2023-01-08T08:59:43.572Z,14.18
2023-01-08T09:00:45.173Z,11.63
2023-01-08T09:01:46.913Z,12.30
2023-01-08T09:02:50.736Z,10.05
2023-01-08T09:03:52.448Z,11.30
2023-01-08T09:04:54.080Z,11.60
2023-01-08T09:05:56.184Z,7.65
2023-01-08T09:06:59.097Z,8.90
2023-01-08T09:08:00.740Z,7.45
2023-01-08T09:09:02.395Z,9.40
2023-01-08T09:10:04.709Z,6.70
2023-01-08T09:11:06.353Z,6.28
2023-01-08T09:12:07.987Z,7.18
2023-01-08T09:13:09.902Z,9.18
2023-01-08T09:14:11.445Z,6.07
2023-01-08T09:15:13.121Z,6.15
2023-01-08T09:16:14.926Z,6.97
2023-01-08T09:17:16.574Z,8.63
2023-01-08T09:18:18.194Z,7.43
2023-01-08T09:19:19.747Z,5.10
2023-01-08T09:20:22.024Z,8.55
2023-01-08T09:21:23.619Z,6.93
2023-01-08T09:22:25.311Z,10.80
2023-01-08T09:23:26.850Z,11.48
2023-01-08T09:24:28.488Z,14.23
2023-01-08T09:25:30.562Z,12.38
2023-01-08T09:26:32.199Z,9.55
2023-01-08T09:27:33.877Z,11.75
2023-01-08T09:28:35.509Z,13.20
2023-01-08T09:29:37.152Z,10.05
2023-01-08T09:30:39.696Z,9.45
2023-01-08T09:32:42.830Z,5.63
2023-01-08T09:33:44.439Z,4.90
2023-01-08T09:34:46.077Z,6.18
2023-01-08T09:35:47.808Z,4.82
2023-01-08T09:36:49.470Z,5.80
2023-01-08T09:37:52.370Z,5.38
2023-01-08T09:38:53.966Z,6.07
2023-01-08T09:40:02.125Z,9.20
2023-01-08T09:41:08.916Z,8.82
2023-01-08T09:42:11.815Z,10.45
2023-01-08T09:43:17.465Z,11.27
2023-01-08T09:44:22.335Z,10.90
2023-01-08T09:45:35.539Z,9.40
2023-01-08T09:46:37.188Z,8.55
2023-01-08T09:47:39.948Z,6.22
2023-01-08T09:48:42.259Z,6.40
2023-01-08T09:49:45.951Z,6.13
2023-01-08T09:50:48.200Z,6.90
2023-01-08T09:51:49.900Z,7.53
2023-01-08T09:52:51.857Z,5.82
2023-01-08T09:53:57.597Z,7.50
2023-01-08T09:55:00.707Z,6.22
2023-01-08T09:56:10.212Z,5.80
2023-01-08T09:57:20.771Z,8.40
2023-01-08T09:58:30.926Z,8.05
2023-01-08T09:59:33.244Z,8.43
2023-01-08T10:00:34.906Z,7.90
2023-01-08T10:01:38.852Z,23.77
2023-01-08T10:02:40.958Z,37.83
2023-01-08T10:03:49.146Z,18.42
2023-01-08T10:04:56.411Z,23.45
2023-01-08T10:05:58.074Z,14.82
2023-01-08T10:07:11.662Z,15.38
2023-01-08T10:08:14.667Z,10.00
2023-01-08T10:09:16.351Z,16.02
2023-01-08T10:10:23.639Z,21.38
2023-01-08T10:11:27.219Z,29.85
2023-01-08T10:12:30.886Z,38.10
2023-01-08T10:13:33.726Z,35.47
2023-01-08T10:14:39.902Z,15.63
2023-01-08T10:15:41.656Z,10.02
2023-01-08T10:16:43.916Z,7.20
2023-01-08T10:18:14.694Z,8.20
2023-01-08T10:19:16.349Z,7.25
2023-01-08T10:20:21.994Z,7.63
2023-01-08T10:21:36.977Z,8.15
2023-01-08T10:22:38.633Z,10.23
2023-01-08T10:23:52.375Z,12.25
2023-01-08T10:25:06.188Z,9.88
2023-01-08T10:26:07.830Z,9.35
2023-01-08T10:27:18.485Z,9.88
2023-01-08T10:28:24.332Z,12.68
2023-01-08T10:29:25.902Z,12.85
2023-01-08T10:30:36.272Z,11.20
2023-01-08T10:31:49.455Z,9.85
2023-01-08T10:32:55.318Z,7.40
2023-01-08T10:33:57.359Z,6.93
2023-01-08T10:35:03.975Z,6.00
2023-01-08T10:36:08.486Z,5.28
2023-01-08T10:37:50.338Z,4.85
2023-01-08T10:39:04.275Z,5.38
2023-01-08T10:40:22.791Z,4.72
2023-01-08T10:41:24.612Z,5.13
2023-01-08T10:42:26.459Z,4.50
2023-01-08T10:43:34.927Z,4.25
2023-01-08T10:44:36.719Z,4.28
2023-01-08T10:45:38.306Z,6.63
2023-01-08T10:46:48.261Z,6.03
2023-01-08T10:47:53.056Z,6.05
2023-01-08T10:49:00.287Z,5.38
2023-01-08T10:50:04.014Z,5.57
2023-01-08T10:51:25.605Z,7.20
2023-01-08T10:52:36.347Z,5.95
2023-01-08T10:53:38.031Z,5.28
2023-01-08T10:54:41.045Z,5.00
2023-01-08T10:55:42.609Z,5.70
2023-01-08T10:56:45.236Z,5.43
2023-01-08T10:58:55.288Z,6.50
2023-01-08T10:59:57.303Z,6.20
2023-01-08T11:01:10.549Z,5.47
2023-01-08T11:02:29.353Z,4.05
2023-01-08T11:03:32.023Z,4.47
2023-01-08T11:04:35.464Z,4.72
2023-01-08T11:05:38.815Z,4.57
2023-01-08T11:06:45.350Z,3.88
2023-01-08T11:07:52.573Z,5.32
2023-01-08T11:08:58.719Z,5.57
2023-01-08T11:10:00.378Z,4.38
2023-01-08T11:11:02.258Z,4.20
2023-01-08T11:12:04.235Z,4.35
2023-01-08T11:13:10.466Z,4.13
2023-01-08T11:14:21.555Z,4.82
2023-01-08T11:15:23.144Z,3.35
2023-01-08T11:16:34.657Z,5.00
2023-01-08T11:17:36.379Z,4.63
2023-01-08T11:18:47.304Z,4.55
2023-01-08T11:19:48.879Z,5.68
2023-01-08T11:20:52.210Z,3.88
2023-01-08T11:22:05.581Z,4.50
2023-01-08T11:23:15.243Z,4.72
2023-01-08T11:24:25.982Z,3.92
2023-01-08T11:25:29.495Z,5.32
2023-01-08T11:26:31.446Z,4.60
2023-01-08T11:27:37.570Z,3.90
2023-01-08T11:28:57.765Z,3.53
2023-01-08T11:30:19.874Z,4.43
2023-01-08T11:31:43.119Z,3.10
2023-01-08T11:32:44.705Z,4.65
2023-01-08T11:33:47.979Z,4.30
2023-01-08T11:35:04.938Z,4.63
2023-01-08T11:36:14.982Z,5.70
2023-01-08T11:37:19.377Z,4.13
2023-01-08T11:38:20.996Z,5.75
2023-01-08T11:39:22.648Z,5.10
2023-01-08T11:40:50.982Z,4.38
2023-01-08T11:42:22.132Z,4.40
2023-01-08T11:44:04.569Z,5.10
2023-01-08T11:45:26.003Z,5.50
2023-01-08T11:46:38.446Z,4.28
2023-01-08T11:47:39.995Z,4.68
2023-01-08T11:48:48.411Z,4.00
2023-01-08T11:50:01.616Z,5.18
2023-01-08T11:51:15.009Z,5.07
2023-01-08T11:52:50.643Z,6.20
2023-01-08T11:54:01.697Z,4.40
2023-01-08T11:55:32.676Z,3.85
2023-01-08T11:57:01.945Z,4.18
2023-01-08T11:58:24.614Z,4.63
2023-01-08T11:59:32.129Z,4.22
2023-01-08T12:01:15.231Z,3.50
2023-01-08T12:02:26.328Z,5.07
2023-01-08T12:03:34.723Z,4.35
2023-01-08T12:04:53.545Z,5.07
2023-01-08T12:06:13.849Z,4.35
2023-01-08T12:07:24.558Z,5.88
2023-01-08T12:08:44.604Z,5.10
2023-01-08T12:09:50.697Z,6.75
2023-01-08T12:11:05.165Z,6.30
2023-01-08T12:12:24.499Z,6.50
2023-01-08T12:13:29.145Z,6.68
2023-01-08T12:15:19.856Z,6.03
2023-01-08T12:16:30.532Z,6.60
2023-01-08T12:17:41.157Z,8.10
2023-01-08T12:19:14.961Z,5.47
2023-01-08T12:20:36.523Z,6.22
2023-01-08T12:21:55.969Z,6.38
2023-01-08T12:23:06.276Z,8.75
2023-01-08T12:24:25.789Z,8.35
2023-01-08T12:25:42.632Z,8.23
2023-01-08T12:27:01.181Z,8.15
2023-01-08T12:28:21.080Z,5.78
2023-01-08T12:29:26.602Z,5.18
2023-01-08T12:30:28.148Z,5.63
2023-01-08T12:32:03.830Z,5.90
2023-01-08T12:33:23.811Z,7.35
2023-01-08T12:34:43.783Z,8.05
2023-01-08T12:35:48.924Z,7.03
2023-01-08T12:36:53.987Z,5.88
2023-01-08T12:38:01.059Z,6.35
2023-01-08T12:39:05.135Z,5.57
2023-01-08T12:40:14.078Z,5.47
2023-01-08T12:41:19.322Z,6.80
2023-01-08T12:42:25.398Z,5.47
2023-01-08T12:43:48.983Z,7.35
2023-01-08T12:44:54.382Z,6.93
2023-01-08T12:45:57.222Z,8.38
2023-01-08T12:47:02.310Z,6.78
2023-01-08T12:48:09.152Z,8.07
2023-01-08T12:49:14.804Z,8.20
2023-01-08T12:50:21.784Z,8.02
2023-01-08T12:51:29.059Z,8.43
2023-01-08T12:52:51.070Z,7.38
2023-01-08T12:54:29.515Z,7.40
2023-01-08T12:56:16.032Z,8.63
2023-01-08T12:57:39.387Z,7.20
2023-01-08T12:58:57.237Z,6.60
2023-01-08T13:00:53.630Z,7.28
2023-01-08T13:02:04.963Z,8.73
2023-01-08T13:03:14.859Z,7.78
2023-01-08T13:04:16.518Z,10.77
2023-01-08T13:05:18.026Z,9.57
2023-01-08T13:06:20.984Z,13.63
2023-01-08T13:07:30.586Z,10.45
2023-01-08T13:08:34.593Z,10.82
2023-01-08T13:09:36.206Z,9.95
2023-01-08T13:10:48.761Z,11.38
2023-01-08T13:11:55.659Z,9.60
2023-01-08T13:12:58.399Z,10.65
2023-01-08T13:14:11.050Z,7.57
2023-01-08T13:15:23.692Z,8.20
2023-01-08T13:16:25.600Z,9.30
2023-01-08T13:17:28.126Z,10.25
2023-01-08T13:18:29.796Z,10.27
2023-01-08T13:19:45.326Z,9.90
2023-01-08T13:21:01.389Z,8.23
2023-01-08T13:22:03.414Z,13.73
2023-01-08T13:23:05.689Z,13.32
2023-01-08T13:24:29.978Z,14.32
2023-01-08T13:25:34.050Z,18.13
2023-01-08T13:26:36.860Z,18.38
2023-01-08T13:27:38.807Z,16.25
2023-01-08T13:28:44.928Z,17.05
2023-01-08T13:29:48.115Z,14.55
2023-01-08T13:30:49.988Z,14.45
2023-01-08T13:31:51.980Z,23.40
2023-01-08T13:32:53.579Z,21.48
2023-01-08T13:33:55.856Z,22.63
2023-01-08T13:35:22.363Z,18.10
2023-01-08T13:36:28.105Z,17.02
2023-01-08T13:37:29.698Z,14.25
2023-01-08T13:38:31.312Z,14.98
2023-01-08T13:39:36.460Z,13.23
2023-01-08T13:40:43.820Z,14.75
2023-01-08T13:42:13.675Z,11.90
2023-01-08T13:43:22.655Z,11.88
2023-01-08T13:44:28.039Z,10.35
2023-01-08T13:45:30.721Z,12.50
2023-01-08T13:46:35.073Z,10.48
2023-01-08T13:47:42.601Z,11.02
2023-01-08T13:49:00.908Z,9.82
2023-01-08T13:50:14.881Z,12.40
2023-01-08T13:51:45.933Z,11.55
2023-01-08T13:52:49.016Z,10.05
2023-01-08T13:53:51.246Z,12.23
2023-01-08T13:54:54.020Z,11.60
2023-01-08T13:56:01.095Z,10.02
2023-01-08T13:57:06.147Z,9.48
2023-01-08T13:58:15.811Z,12.10
2023-01-08T13:59:26.367Z,11.30
2023-01-08T14:00:42.929Z,9.30
2023-01-08T14:01:54.862Z,10.32
2023-01-08T14:02:56.819Z,9.65
2023-01-08T14:03:58.739Z,11.15
2023-01-08T14:05:02.253Z,12.52
2023-01-08T14:06:28.892Z,12.20
2023-01-08T14:07:30.824Z,9.52
2023-01-08T14:08:32.667Z,9.18
2023-01-08T14:09:34.738Z,11.23
2023-01-08T14:10:36.716Z,9.50
2023-01-08T14:11:48.006Z,9.07
2023-01-08T14:12:51.391Z,10.82
2023-01-08T14:13:53.066Z,10.95
2023-01-08T14:14:59.160Z,10.60
2023-01-08T14:16:03.601Z,9.52
2023-01-08T14:17:05.282Z,9.80
2023-01-08T14:18:07.052Z,9.82
2023-01-08T14:19:08.727Z,9.70
2023-01-08T14:20:12.297Z,11.25
2023-01-08T14:21:15.011Z,10.40
2023-01-08T14:22:31.570Z,10.55
2023-01-08T14:23:37.306Z,9.57
2023-01-08T14:24:38.920Z,10.73
2023-01-08T14:25:41.437Z,10.52
2023-01-08T14:27:55.199Z,10.45
2023-01-08T14:28:56.976Z,10.43